Time;durP1;ratioP1;P1;durP2;ratioP2;P2;SDS_P1;SDS_P2;PMS_P1;PMS_P2;Temp;Humidity;BMP_temperature;BMP_pressure;BME280_temperature;BME280_humidity;BME280_pressure;Samples;Min_cycle;Max_cycle;Signal;HPM_P1;HPM_P2
2022/04/09 00:00:40;;;;;;;4.40;1.08;;;12.60;99.90;;;;;;5005961;28;20026;-77
2022/04/09 00:03:06;;;;;;;1.20;0.70;;;12.70;99.90;;;;;;5008244;28;20026;-77
2022/04/09 00:05:31;;;;;;;2.65;1.05;;;12.70;99.90;;;;;;5011179;28;20494;-78
2022/04/09 00:07:57;;;;;;;5.03;1.00;;;12.60;99.90;;;;;;5009829;28;20370;-77
2022/04/09 00:10:23;;;;;;;3.97;1.00;;;12.70;99.90;;;;;;5009943;28;20527;-78
2022/04/09 00:12:48;;;;;;;3.90;0.95;;;12.60;99.90;;;;;;5011049;28;20033;-78
2022/04/09 00:15:16;;;;;;;1.48;0.88;;;12.50;99.90;;;;;;5011023;28;20061;-78
2022/04/09 00:17:44;;;;;;;3.95;1.10;;;12.50;99.90;;;;;;5011067;28;20026;-78
2022/04/09 00:20:12;;;;;;;4.82;0.90;;;12.60;99.90;;;;;;5010946;28;20308;-77
2022/04/09 00:22:38;;;;;;;3.03;1.00;;;12.40;99.90;;;;;;5009467;28;20030;-77
2022/04/09 00:25:06;;;;;;;2.83;1.15;;;12.30;99.90;;;;;;5010626;28;20101;-77
2022/04/09 00:27:31;;;;;;;2.80;1.00;;;12.10;99.90;;;;;;5010464;28;20387;-77
2022/04/09 00:29:57;;;;;;;3.33;1.00;;;11.80;99.90;;;;;;5012041;28;20033;-77
2022/04/09 00:32:22;;;;;;;2.73;0.93;;;11.50;99.90;;;;;;5012525;28;20048;-77
2022/04/09 00:34:48;;;;;;;4.53;1.00;;;11.40;99.90;;;;;;5013498;28;20022;-78
2022/04/09 00:37:14;;;;;;;1.37;1.00;;;11.20;99.90;;;;;;5014056;28;20043;-77
2022/04/09 00:39:43;;;;;;;3.17;1.00;;;11.00;99.90;;;;;;5012546;28;20030;-77
2022/04/09 00:42:17;;;;;;;2.20;1.33;;;10.90;99.90;;;;;;5014093;28;20041;-77
2022/04/09 00:44:42;;;;;;;3.23;0.90;;;10.90;99.90;;;;;;5013963;28;20026;-77
2022/04/09 00:47:09;;;;;;;3.60;0.90;;;10.90;99.90;;;;;;5014360;28;20029;-77
2022/04/09 00:49:39;;;;;;;1.93;1.00;;;10.90;99.90;;;;;;5029239;28;20049;-77
2022/04/09 00:52:07;;;;;;;1.07;0.80;;;10.80;99.90;;;;;;5013063;28;20032;-76
2022/04/09 00:54:37;;;;;;;5.27;1.03;;;10.60;99.90;;;;;;5014153;28;20454;-78
2022/04/09 00:57:05;;;;;;;5.43;1.30;;;10.40;99.90;;;;;;5012534;28;20391;-77
2022/04/09 00:59:35;;;;;;;2.07;0.90;;;10.10;99.90;;;;;;5013940;28;20022;-77
2022/04/09 01:02:01;;;;;;;2.80;1.00;;;10.00;99.90;;;;;;5008308;28;20030;-77
2022/04/09 01:04:27;;;;;;;3.07;1.00;;;9.90;99.90;;;;;;5009658;28;20052;-77
2022/04/09 01:06:55;;;;;;;1.17;0.90;;;9.60;99.90;;;;;;4997010;28;20030;-77
2022/04/09 01:09:21;;;;;;;2.50;0.70;;;9.00;99.90;;;;;;5014053;28;20022;-78
2022/04/09 01:11:47;;;;;;;1.57;0.70;;;8.60;99.90;;;;;;5013898;28;20026;-78
2022/04/09 01:14:13;;;;;;;1.13;0.70;;;8.50;99.90;;;;;;5013821;28;20041;-77
2022/04/09 01:16:39;;;;;;;1.13;0.60;;;8.20;99.90;;;;;;5013442;28;20021;-77
2022/04/09 01:19:06;;;;;;;1.67;0.70;;;8.00;99.90;;;;;;5014219;28;20244;-77
2022/04/09 01:21:32;;;;;;;1.30;0.70;;;7.80;99.90;;;;;;5013394;28;20534;-77
2022/04/09 01:23:59;;;;;;;1.93;0.67;;;7.50;99.90;;;;;;5013428;28;20038;-77
2022/04/09 01:26:24;;;;;;;1.87;0.60;;;7.30;99.90;;;;;;5013311;28;20069;-77
2022/04/09 01:28:50;;;;;;;1.40;0.70;;;7.30;99.90;;;;;;5013153;28;20030;-77
2022/04/09 01:31:16;;;;;;;0.57;0.57;;;7.20;99.90;;;;;;5013188;28;20033;-76
2022/04/09 01:33:43;;;;;;;0.83;0.70;;;7.00;99.90;;;;;;5013112;28;20450;-77
2022/04/09 01:36:08;;;;;;;2.70;0.60;;;6.90;99.90;;;;;;5013268;28;20041;-77
2022/04/09 01:38:34;;;;;;;1.43;0.60;;;6.80;99.90;;;;;;5012955;28;20037;-77
2022/04/09 01:41:01;;;;;;;0.67;0.60;;;6.70;99.90;;;;;;5011880;28;20445;-76
2022/04/09 01:43:27;;;;;;;0.60;0.60;;;6.70;99.90;;;;;;5012913;28;20033;-77
2022/04/09 01:45:53;;;;;;;1.90;0.80;;;6.70;99.90;;;;;;5012669;28;20040;-77
2022/04/09 01:48:19;;;;;;;0.50;0.50;;;6.60;99.90;;;;;;5012889;28;20116;-76
2022/04/09 01:50:45;;;;;;;0.50;0.50;;;6.30;99.90;;;;;;5012789;28;20117;-76
2022/04/09 01:53:11;;;;;;;0.60;0.60;;;6.00;99.90;;;;;;5012743;28;20046;-76
2022/04/09 01:55:37;;;;;;;0.60;0.60;;;5.70;99.90;;;;;;5012680;28;20759;-76
2022/04/09 01:58:03;;;;;;;2.47;0.70;;;5.40;99.90;;;;;;5012866;28;20098;-76
2022/04/09 02:00:30;;;;;;;0.70;0.70;;;5.20;99.90;;;;;;5007977;28;20065;-76
2022/04/09 02:02:55;;;;;;;0.60;0.60;;;4.90;99.90;;;;;;5002011;28;20038;-76
2022/04/09 02:05:21;;;;;;;0.60;0.60;;;4.80;99.90;;;;;;4992066;28;20366;-76
2022/04/09 02:07:47;;;;;;;0.70;0.70;;;4.50;99.90;;;;;;4992440;28;20058;-76
2022/04/09 02:10:14;;;;;;;0.60;0.60;;;4.30;99.90;;;;;;4993095;28;20468;-76
2022/04/09 02:12:40;;;;;;;0.60;0.60;;;4.10;99.90;;;;;;5001068;28;20065;-76
2022/04/09 02:15:11;;;;;;;0.70;0.70;;;3.80;99.90;;;;;;5010884;28;20386;-76
2022/04/09 02:17:38;;;;;;;0.60;0.60;;;3.50;99.90;;;;;;5012174;28;20029;-76
2022/04/09 02:20:06;;;;;;;0.60;0.60;;;3.40;99.90;;;;;;5012173;28;20156;-76
2022/04/09 02:22:35;;;;;;;0.80;0.70;;;3.40;99.90;;;;;;5011992;28;20467;-76
2022/04/09 02:25:05;;;;;;;0.77;0.77;;;3.20;99.90;;;;;;5027589;28;20375;-76
2022/04/09 02:27:30;;;;;;;0.60;0.60;;;3.10;99.90;;;;;;5012360;28;20077;-76
2022/04/09 02:29:56;;;;;;;0.67;0.67;;;3.00;99.90;;;;;;5012025;28;20030;-76
2022/04/09 02:32:22;;;;;;;0.80;0.80;;;2.90;99.90;;;;;;5011947;28;20054;-76
2022/04/09 02:34:49;;;;;;;0.70;0.70;;;2.80;99.90;;;;;;5027213;28;20073;-76
2022/04/09 02:37:15;;;;;;;0.87;0.70;;;2.70;99.90;;;;;;5011925;28;20463;-75
2022/04/09 02:39:41;;;;;;;1.53;0.70;;;2.60;99.90;;;;;;5011791;28;20029;-76
2022/04/09 02:42:06;;;;;;;0.93;0.90;;;2.50;99.90;;;;;;5010683;28;20750;-76
2022/04/09 02:44:32;;;;;;;0.80;0.80;;;2.50;99.90;;;;;;5011861;28;20422;-76
2022/04/09 02:46:58;;;;;;;0.90;0.90;;;2.60;99.90;;;;;;5012053;28;20018;-76
2022/04/09 02:49:23;;;;;;;0.97;0.97;;;2.50;99.90;;;;;;5012051;28;20537;-76
2022/04/09 02:51:49;;;;;;;1.00;1.00;;;2.50;99.90;;;;;;5012154;28;20029;-76
2022/04/09 02:54:17;;;;;;;1.30;0.90;;;2.50;99.90;;;;;;5012335;28;20056;-76
2022/04/09 02:56:45;;;;;;;1.00;0.90;;;2.50;99.90;;;;;;5012348;28;20431;-76
2022/04/09 02:59:13;;;;;;;0.93;0.93;;;2.40;99.90;;;;;;5011831;28;20053;-76
2022/04/09 03:01:46;;;;;;;1.00;1.00;;;2.50;99.90;;;;;;5005353;28;20080;-76
2022/04/09 03:04:12;;;;;;;1.00;1.00;;;2.50;99.90;;;;;;5011656;28;20372;-76
2022/04/09 03:06:38;;;;;;;1.20;1.10;;;2.60;99.90;;;;;;5026755;28;20033;-76
2022/04/09 03:09:04;;;;;;;1.40;1.20;;;2.60;99.90;;;;;;5011765;28;20045;-76
2022/04/09 03:11:30;;;;;;;1.40;1.30;;;2.50;99.90;;;;;;5012156;28;20482;-76
2022/04/09 03:13:56;;;;;;;1.20;1.10;;;2.60;99.90;;;;;;5012103;28;20025;-76
2022/04/09 03:16:21;;;;;;;1.47;1.30;;;2.60;99.90;;;;;;5027114;28;20033;-76
2022/04/09 03:18:48;;;;;;;1.50;1.40;;;2.60;99.90;;;;;;5012230;28;20032;-76
2022/04/09 03:21:13;;;;;;;2.90;1.60;;;2.50;99.90;;;;;;5011714;28;20494;-76
2022/04/09 03:23:39;;;;;;;1.90;1.53;;;2.50;99.90;;;;;;5010658;28;20034;-76
2022/04/09 03:26:05;;;;;;;2.00;1.67;;;2.50;99.90;;;;;;5010536;28;20076;-76
2022/04/09 03:28:31;;;;;;;2.00;1.80;;;2.60;99.90;;;;;;5011998;28;20510;-76
2022/04/09 03:30:57;;;;;;;3.23;1.90;;;2.60;99.90;;;;;;5011551;28;20017;-76
2022/04/09 03:33:23;;;;;;;2.10;1.70;;;2.80;99.90;;;;;;5011491;28;20115;-76
2022/04/09 03:35:49;;;;;;;1.93;1.73;;;2.70;99.90;;;;;;5010409;28;20026;-76
2022/04/09 03:38:14;;;;;;;2.00;1.70;;;2.90;99.90;;;;;;5011432;28;20034;-76
2022/04/09 03:40:40;;;;;;;3.77;1.80;;;2.80;99.90;;;;;;5026272;28;20124;-76
2022/04/09 03:43:06;;;;;;;3.57;2.30;;;2.80;99.90;;;;;;5023141;28;20038;-76
2022/04/09 03:45:32;;;;;;;3.07;2.33;;;2.80;99.90;;;;;;5006969;28;20026;-76
2022/04/09 03:47:57;;;;;;;2.30;2.10;;;2.80;99.90;;;;;;4992314;28;20037;-76
2022/04/09 03:50:23;;;;;;;2.40;2.20;;;2.70;99.90;;;;;;4991764;28;20026;-76
2022/04/09 03:52:48;;;;;;;2.90;2.50;;;2.80;99.90;;;;;;4992085;28;20030;-76
2022/04/09 03:55:14;;;;;;;3.20;2.47;;;2.70;99.90;;;;;;4991727;28;20022;-77
2022/04/09 03:57:40;;;;;;;2.17;1.97;;;2.70;99.90;;;;;;4990958;28;20031;-76
2022/04/09 04:00:07;;;;;;;2.80;2.30;;;2.70;99.90;;;;;;4996029;28;20083;-76
2022/04/09 04:02:33;;;;;;;2.60;2.20;;;2.80;99.90;;;;;;5005895;28;20160;-76
2022/04/09 04:05:02;;;;;;;3.30;2.60;;;2.70;99.90;;;;;;5012154;28;20025;-76
2022/04/09 04:07:29;;;;;;;2.80;2.50;;;2.70;99.90;;;;;;5014754;28;20022;-77
2022/04/09 04:09:54;;;;;;;3.20;2.40;;;2.90;99.90;;;;;;5014236;28;20018;-76
2022/04/09 04:12:20;;;;;;;2.50;2.30;;;2.80;99.90;;;;;;5014146;28;20052;-77
2022/04/09 04:14:46;;;;;;;3.07;2.60;;;2.80;99.90;;;;;;5013881;28;20033;-77
2022/04/09 04:17:12;;;;;;;2.60;2.20;;;2.80;99.90;;;;;;5013929;28;20113;-76
2022/04/09 04:19:39;;;;;;;2.73;2.30;;;2.80;99.90;;;;;;5014138;28;20083;-77
2022/04/09 04:22:05;;;;;;;2.77;2.20;;;2.70;99.90;;;;;;5014255;28;20106;-77
2022/04/09 04:24:30;;;;;;;4.37;2.17;;;2.70;99.90;;;;;;5013942;28;20451;-77
2022/04/09 04:26:56;;;;;;;2.67;2.00;;;2.70;99.90;;;;;;5012607;28;20112;-77
2022/04/09 04:29:21;;;;;;;3.70;2.63;;;2.80;99.90;;;;;;5012687;28;20484;-77
2022/04/09 04:31:47;;;;;;;3.47;2.60;;;2.80;99.90;;;;;;5013841;28;20101;-77
2022/04/09 04:34:13;;;;;;;2.93;2.40;;;2.70;99.90;;;;;;5013737;28;20100;-76
2022/04/09 04:36:38;;;;;;;4.27;2.60;;;2.80;99.90;;;;;;5013898;28;20026;-76
2022/04/09 04:39:04;;;;;;;2.97;2.50;;;2.90;99.90;;;;;;5013792;28;20072;-78
2022/04/09 04:41:29;;;;;;;2.90;2.43;;;2.90;99.90;;;;;;5012382;28;20072;-77
2022/04/09 04:43:55;;;;;;;3.07;2.43;;;2.90;99.90;;;;;;5013792;28;20060;-77
2022/04/09 04:46:21;;;;;;;4.07;2.77;;;2.90;99.90;;;;;;5013386;28;20130;-77
2022/04/09 04:48:47;;;;;;;3.20;2.80;;;2.90;99.90;;;;;;5012379;28;20030;-78
2022/04/09 04:51:13;;;;;;;3.30;2.83;;;2.90;99.90;;;;;;5013186;28;20018;-78
2022/04/09 04:53:38;;;;;;;5.97;2.80;;;2.90;99.90;;;;;;5012478;28;20052;-78
2022/04/09 04:56:04;;;;;;;3.80;2.90;;;2.90;99.90;;;;;;5000572;28;20117;-78
2022/04/09 04:58:30;;;;;;;3.47;2.73;;;3.00;99.90;;;;;;5002855;28;20036;-78
2022/04/09 05:00:55;;;;;;;3.50;2.97;;;3.00;99.90;;;;;;5006218;28;20034;-78
2022/04/09 05:03:21;;;;;;;4.00;3.00;;;3.00;99.90;;;;;;5005622;28;20026;-78
2022/04/09 05:05:47;;;;;;;4.50;3.50;;;2.90;99.90;;;;;;5000300;28;20030;-78
2022/04/09 05:08:12;;;;;;;4.00;3.33;;;2.90;99.90;;;;;;5003589;28;20093;-78
2022/04/09 05:10:38;;;;;;;5.00;3.23;;;2.90;99.90;;;;;;5005591;28;20379;-78
2022/04/09 05:13:04;;;;;;;4.00;3.60;;;2.90;99.90;;;;;;5004418;28;20026;-78
2022/04/09 05:15:29;;;;;;;3.80;3.40;;;2.80;99.90;;;;;;4999518;28;20117;-78
2022/04/09 05:17:55;;;;;;;4.17;3.77;;;2.80;99.90;;;;;;5002586;28;20022;-77
2022/04/09 05:20:21;;;;;;;4.80;3.90;;;2.80;99.90;;;;;;5003011;28;20026;-77
2022/04/09 05:22:46;;;;;;;6.00;4.30;;;2.80;99.90;;;;;;5004245;28;20026;-77
2022/04/09 05:25:13;;;;;;;6.13;4.13;;;2.90;99.90;;;;;;5004243;28;20077;-77
2022/04/09 05:27:40;;;;;;;5.70;4.70;;;2.90;99.90;;;;;;5002001;28;20141;-77
2022/04/09 05:30:06;;;;;;;5.03;4.33;;;2.90;99.90;;;;;;5000932;28;20034;-76
2022/04/09 05:32:32;;;;;;;5.93;4.60;;;2.80;99.90;;;;;;5021864;28;20049;-77
2022/04/09 05:34:58;;;;;;;6.10;5.50;;;2.80;99.90;;;;;;5000813;28;20336;-77
2022/04/09 05:37:23;;;;;;;6.93;4.93;;;2.80;99.90;;;;;;4999199;28;20046;-77
2022/04/09 05:39:49;;;;;;;7.37;5.67;;;2.90;99.90;;;;;;5003134;28;20032;-76
2022/04/09 05:42:14;;;;;;;6.57;5.60;;;2.90;99.90;;;;;;5003195;28;20406;-77
2022/04/09 05:44:40;;;;;;;7.07;6.13;;;2.90;99.90;;;;;;4996766;28;20057;-76
2022/04/09 05:47:06;;;;;;;9.17;6.17;;;2.80;99.90;;;;;;4999255;28;20131;-78
2022/04/09 05:49:32;;;;;;;8.03;6.20;;;2.80;99.90;;;;;;5002984;28;20022;-82
2022/04/09 05:51:58;;;;;;;7.93;6.13;;;2.80;99.90;;;;;;5002122;28;20026;-82
2022/04/09 05:54:24;;;;;;;9.43;6.80;;;2.80;99.90;;;;;;4999362;28;20059;-79
2022/04/09 05:56:50;;;;;;;10.03;6.43;;;2.80;99.90;;;;;;4999361;28;20034;-79
2022/04/09 05:59:16;;;;;;;7.37;6.30;;;2.80;99.90;;;;;;5001844;28;20057;-78
2022/04/09 06:01:41;;;;;;;7.90;6.57;;;2.80;99.90;;;;;;5026319;28;20103;-80
2022/04/09 06:04:10;;;;;;;9.33;7.53;;;2.90;99.90;;;;;;5009611;28;20038;-77
2022/04/09 06:06:37;;;;;;;8.47;6.97;;;3.00;99.90;;;;;;5012092;28;20100;-77
2022/04/09 06:09:03;;;;;;;8.03;7.20;;;3.00;99.90;;;;;;5003206;28;20029;-77
2022/04/09 06:11:29;;;;;;;7.10;6.10;;;3.00;99.90;;;;;;5008279;28;20018;-77
2022/04/09 06:13:55;;;;;;;7.00;6.20;;;3.10;99.90;;;;;;5012327;28;20018;-77
2022/04/09 06:16:22;;;;;;;6.10;5.50;;;3.20;99.90;;;;;;5007535;28;20031;-76
2022/04/09 06:18:48;;;;;;;7.17;5.97;;;3.20;99.90;;;;;;5003305;28;20109;-76
2022/04/09 06:21:13;;;;;;;8.43;5.77;;;3.10;99.90;;;;;;5010759;28;20101;-76
2022/04/09 06:23:39;;;;;;;6.87;5.90;;;3.10;99.90;;;;;;5009015;28;20038;-77
2022/04/09 06:26:07;;;;;;;6.97;5.90;;;3.10;99.90;;;;;;5005331;28;20700;-78
2022/04/09 06:28:34;;;;;;;7.40;6.00;;;3.10;99.90;;;;;;5003681;28;20030;-78
2022/04/09 06:31:00;;;;;;;7.00;5.77;;;3.10;99.90;;;;;;5011673;28;20798;-78
2022/04/09 06:33:25;;;;;;;6.70;5.90;;;3.10;99.90;;;;;;5003433;28;20034;-78
2022/04/09 06:35:51;;;;;;;7.47;6.60;;;3.20;99.90;;;;;;5002447;28;20481;-77
2022/04/09 06:38:16;;;;;;;6.37;5.73;;;3.10;99.90;;;;;;5003162;28;20183;-78
2022/04/09 06:40:42;;;;;;;7.73;6.40;;;3.10;99.90;;;;;;5006919;28;20022;-77
2022/04/09 06:43:08;;;;;;;7.10;5.50;;;3.10;99.90;;;;;;5004001;28;20506;-77
2022/04/09 06:45:34;;;;;;;6.90;5.30;;;3.30;99.90;;;;;;5002172;28;20414;-77
2022/04/09 06:48:00;;;;;;;7.30;5.83;;;3.40;99.90;;;;;;5001624;28;20037;-77
2022/04/09 06:50:25;;;;;;;7.83;5.67;;;3.40;99.90;;;;;;4990514;28;20015;-77
2022/04/09 06:52:51;;;;;;;8.47;6.50;;;3.40;99.90;;;;;;4992187;28;20095;-77
2022/04/09 06:55:16;;;;;;;6.33;5.73;;;3.50;99.90;;;;;;4992021;28;20296;-77
2022/04/09 06:57:43;;;;;;;8.37;5.97;;;3.40;99.90;;;;;;4997517;28;20057;-77
2022/04/09 07:00:11;;;;;;;7.43;5.77;;;3.40;99.90;;;;;;5009551;28;20018;-77
2022/04/09 07:02:37;;;;;;;7.13;5.93;;;3.50;99.90;;;;;;5007152;28;20026;-77
2022/04/09 07:05:03;;;;;;;7.30;6.10;;;3.40;99.90;;;;;;5011499;28;20029;-77
2022/04/09 07:07:29;;;;;;;7.93;6.37;;;3.50;99.90;;;;;;5011193;28;20022;-76
2022/04/09 07:10:10;;;;;;;6.73;5.33;;;3.50;99.90;;;;;;5003108;28;20348;-76
2022/04/09 07:12:36;;;;;;;8.77;6.37;;;3.50;99.90;;;;;;5002293;28;20021;-76
2022/04/09 07:15:03;;;;;;;15.63;6.20;;;3.50;99.90;;;;;;4999280;28;20180;-76
2022/04/09 07:17:32;;;;;;;9.13;5.67;;;3.40;99.90;;;;;;5001326;28;20025;-76
2022/04/09 07:19:58;;;;;;;8.33;6.30;;;3.40;99.90;;;;;;4998194;28;20032;-77
2022/04/09 07:22:24;;;;;;;11.10;6.33;;;3.50;99.90;;;;;;5020969;28;20577;-76
2022/04/09 07:24:50;;;;;;;8.23;6.93;;;3.60;99.90;;;;;;5000834;28;20040;-76
2022/04/09 07:27:16;;;;;;;9.60;6.70;;;3.60;99.90;;;;;;5026291;28;20064;-76
2022/04/09 07:29:41;;;;;;;8.30;5.93;;;3.70;99.90;;;;;;5009806;28;20045;-76
2022/04/09 07:32:08;;;;;;;10.60;6.40;;;3.80;99.90;;;;;;5009895;28;20065;-76
2022/04/09 07:34:33;;;;;;;8.67;6.03;;;3.90;99.90;;;;;;5009869;28;20026;-76
2022/04/09 07:36:59;;;;;;;8.27;6.23;;;3.80;99.90;;;;;;5004175;28;20057;-76
2022/04/09 07:39:24;;;;;;;9.83;6.93;;;3.80;99.90;;;;;;4996208;28;20105;-76
2022/04/09 07:41:50;;;;;;;12.07;6.87;;;4.00;99.90;;;;;;5006950;28;20832;-78
2022/04/09 07:44:16;;;;;;;11.93;7.50;;;4.00;99.90;;;;;;5030276;28;20029;-77
2022/04/09 07:46:41;;;;;;;9.60;7.47;;;4.00;99.90;;;;;;5014046;28;20080;-77
2022/04/09 07:49:07;;;;;;;12.63;7.50;;;4.00;99.90;;;;;;5012241;28;20045;-77
2022/04/09 07:51:32;;;;;;;12.50;8.40;;;4.00;99.90;;;;;;5013667;28;20478;-77
2022/04/09 07:53:58;;;;;;;9.17;7.17;;;4.20;99.90;;;;;;5012827;28;20045;-76
2022/04/09 07:56:23;;;;;;;11.20;8.60;;;4.30;99.90;;;;;;5012228;28;20067;-77
2022/04/09 07:58:49;;;;;;;12.70;9.40;;;4.40;99.90;;;;;;5011593;28;20471;-76
2022/04/09 08:01:15;;;;;;;10.87;9.10;;;4.40;99.90;;;;;;5002920;28;20077;-76
2022/04/09 08:03:40;;;;;;;12.77;9.23;;;4.60;99.90;;;;;;5007117;28;20083;-76
2022/04/09 08:06:06;;;;;;;12.03;8.53;;;4.80;99.90;;;;;;5026513;28;20494;-76
2022/04/09 08:08:32;;;;;;;15.87;8.63;;;5.00;99.90;;;;;;5011388;28;20564;-76
2022/04/09 08:10:58;;;;;;;10.60;7.87;;;5.10;99.90;;;;;;5009657;28;20169;-76
2022/04/09 08:13:24;;;;;;;13.03;9.03;;;5.10;99.90;;;;;;5011275;28;20108;-76
2022/04/09 08:15:50;;;;;;;13.87;8.27;;;5.10;99.90;;;;;;5026361;28;20026;-76
2022/04/09 08:18:15;;;;;;;11.03;7.00;;;5.20;99.90;;;;;;5009462;28;20817;-76
2022/04/09 08:20:41;;;;;;;10.77;6.83;;;5.10;99.90;;;;;;5010991;28;20049;-76
2022/04/09 08:23:07;;;;;;;8.83;6.70;;;5.10;99.90;;;;;;5010704;28;20029;-77
2022/04/09 08:25:32;;;;;;;9.30;6.43;;;5.10;99.90;;;;;;5012021;28;20065;-69
2022/04/09 08:28:00;;;;;;;12.33;6.80;;;5.30;99.90;;;;;;5012385;28;20414;-68
2022/04/09 08:30:25;;;;;;;12.50;7.37;;;5.40;99.90;;;;;;5011553;28;20053;-70
2022/04/09 08:32:56;;;;;;;9.73;6.97;;;5.40;99.90;;;;;;5014890;28;20506;-74
2022/04/09 08:35:22;;;;;;;9.00;6.20;;;5.50;99.90;;;;;;5014765;28;20026;-70
2022/04/09 08:37:58;;;;;;;11.37;7.23;;;5.60;99.90;;;;;;5011726;28;20041;-70
2022/04/09 08:40:25;;;;;;;9.00;6.63;;;5.60;99.90;;;;;;5013474;28;20025;-79
2022/04/09 08:42:51;;;;;;;10.23;5.97;;;5.70;99.90;;;;;;5014376;28;20022;-74
2022/04/09 08:45:17;;;;;;;7.63;5.37;;;5.80;99.90;;;;;;5015289;28;20056;-74
2022/04/09 08:47:43;;;;;;;5.73;4.20;;;5.90;99.90;;;;;;5015524;28;20166;-75
2022/04/09 08:50:14;;;;;;;7.73;4.90;;;6.00;99.90;;;;;;5014196;28;20025;-75
2022/04/09 08:52:41;;;;;;;6.60;3.63;;;6.30;99.90;;;;;;4999569;28;20546;-74
2022/04/09 08:55:09;;;;;;;7.73;4.30;;;6.40;99.90;;;;;;4995526;28;20459;-74
2022/04/09 08:57:35;;;;;;;7.23;4.30;;;6.30;99.90;;;;;;4998717;28;20398;-74
2022/04/09 09:00:13;;;;;;;9.13;4.07;;;6.40;99.90;;;;;;5013933;28;20029;-74
2022/04/09 09:02:49;;;;;;;6.97;4.30;;;6.60;99.90;;;;;;5030374;28;20092;-76
2022/04/09 09:05:28;;;;;;;9.87;3.60;;;6.70;99.90;;;;;;5014386;28;20050;-77
2022/04/09 09:07:53;;;;;;;9.53;3.77;;;6.80;99.90;;;;;;5014512;28;20422;-77
2022/04/09 09:10:19;;;;;;;7.10;3.70;;;7.00;99.90;;;;;;5014760;28;20022;-77
2022/04/09 09:12:57;;;;;;;6.80;3.20;;;7.50;99.90;;;;;;5014940;28;20096;-77
2022/04/09 09:15:23;;;;;;;8.93;3.83;;;7.40;99.90;;;;;;5015576;28;20028;-78
2022/04/09 09:17:54;;;;;;;5.37;3.33;;;7.40;99.90;;;;;;5015565;28;20030;-78
2022/04/09 09:20:20;;;;;;;5.40;3.00;;;7.20;99.90;;;;;;5014268;28;20355;-77
2022/04/09 09:22:48;;;;;;;6.63;3.53;;;7.10;99.90;;;;;;5014224;28;20022;-78
2022/04/09 09:25:13;;;;;;;4.83;2.80;;;7.20;99.90;;;;;;5015789;28;20022;-78
2022/04/09 09:27:40;;;;;;;5.23;3.13;;;7.20;99.90;;;;;;5014549;28;20036;-78
2022/04/09 09:30:07;;;;;;;8.93;3.33;;;7.30;99.90;;;;;;5015419;28;20068;-79
2022/04/09 09:32:35;;;;;;;4.33;2.93;;;7.40;99.90;;;;;;5015170;28;20046;-79
2022/04/09 09:35:02;;;;;;;8.80;3.47;;;7.40;99.90;;;;;;5014097;28;20462;-79
2022/04/09 09:37:30;;;;;;;5.57;2.70;;;7.50;99.90;;;;;;5014201;28;20038;-79
2022/04/09 09:40:00;;;;;;;5.67;2.83;;;7.80;99.90;;;;;;5015308;28;20033;-79
2022/04/09 09:42:26;;;;;;;5.13;2.50;;;7.70;99.90;;;;;;5015181;28;20030;-79
2022/04/09 09:44:55;;;;;;;5.10;2.87;;;7.70;99.90;;;;;;5013793;28;20332;-78
2022/04/09 09:47:20;;;;;;;6.67;3.30;;;7.50;99.90;;;;;;5013707;28;20137;-79
2022/04/09 09:50:07;;;;;;;8.83;3.30;;;7.30;99.90;;;;;;5015146;28;20018;-79
2022/04/09 09:52:36;;;;;;;6.90;3.57;;;7.20;99.90;;;;;;5014417;28;20049;-79
2022/04/09 09:55:14;;;;;;;4.07;2.90;;;7.20;99.90;;;;;;5014577;28;20026;-80
2022/04/09 09:57:41;;;;;;;6.60;3.50;;;7.10;99.90;;;;;;5014529;28;20053;-80
2022/04/09 10:00:14;;;;;;;5.97;3.53;;;7.40;99.90;;;;;;5014819;28;20084;-80
2022/04/09 10:02:40;;;;;;;6.53;3.27;;;7.40;99.90;;;;;;5012534;28;20030;-79
2022/04/09 10:05:07;;;;;;;6.43;2.60;;;7.50;99.90;;;;;;5014379;28;20072;-79
2022/04/09 10:07:36;;;;;;;3.50;2.43;;;7.60;99.90;;;;;;5013108;28;20164;-78
2022/04/09 10:10:06;;;;;;;4.97;2.40;;;7.70;99.90;;;;;;5012971;28;20029;-78
2022/04/09 10:12:40;;;;;;;5.60;2.60;;;7.40;99.90;;;;;;5014439;28;20029;-79
2022/04/09 10:15:07;;;;;;;3.58;2.13;;;7.30;99.90;;;;;;5012685;28;20113;-79
2022/04/09 10:17:36;;;;;;;3.27;2.00;;;7.30;99.90;;;;;;5014490;28;20022;-79
2022/04/09 10:20:05;;;;;;;3.70;2.50;;;7.10;99.90;;;;;;5012914;28;20087;-78
2022/04/09 10:22:58;;;;;;;5.27;2.47;;;7.10;99.90;;;;;;5013981;28;20034;-79
2022/04/09 10:25:32;;;;;;;5.17;2.67;;;7.00;99.90;;;;;;5013864;28;20041;-77
2022/04/09 10:28:02;;;;;;;5.43;2.90;;;7.00;99.90;;;;;;5029166;28;20110;-77
2022/04/09 10:30:29;;;;;;;6.60;2.60;;;6.90;99.90;;;;;;5014068;28;20026;-77
2022/04/09 10:33:00;;;;;;;8.00;2.90;;;7.20;99.90;;;;;;5012983;28;20046;-77
2022/04/09 10:35:38;;;;;;;7.57;2.90;;;7.40;99.90;;;;;;5014499;28;20046;-77
2022/04/09 10:38:07;;;;;;;3.37;2.33;;;7.90;99.90;;;;;;5013307;28;20048;-77
2022/04/09 10:40:57;;;;;;;3.70;1.97;;;8.60;99.90;;;;;;5012718;28;20033;-77
2022/04/09 10:43:24;;;;;;;5.63;1.90;;;8.90;99.90;;;;;;5013792;28;20022;-77
2022/04/09 10:46:02;;;;;;;3.87;2.17;;;8.60;99.90;;;;;;5013700;28;20032;-77
2022/04/09 10:48:50;;;;;;;4.63;2.03;;;8.60;99.90;;;;;;5012614;28;20018;-78
2022/04/09 10:51:16;;;;;;;3.40;2.13;;;8.90;99.90;;;;;;5011589;28;20058;-74
2022/04/09 10:53:43;;;;;;;6.17;2.23;;;9.30;99.90;;;;;;5010634;28;20022;-73
2022/04/09 10:56:24;;;;;;;4.83;2.13;;;9.30;99.90;;;;;;5026522;28;20033;-73
2022/04/09 10:59:12;;;;;;;7.00;1.87;;;9.60;99.90;;;;;;5011338;28;20029;-74
2022/04/09 11:01:47;;;;;;;6.27;2.33;;;9.80;99.90;;;;;;5029041;28;20021;-74
2022/04/09 11:04:36;;;;;;;5.03;2.35;;;9.60;99.90;;;;;;5012647;28;20026;-75
2022/04/09 11:07:09;;;;;;;3.77;1.83;;;9.10;99.90;;;;;;5008633;28;20046;-75
2022/04/09 11:09:59;;;;;;;2.40;1.60;;;9.00;99.90;;;;;;5007959;28;20026;-74
2022/04/09 11:12:28;;;;;;;5.13;2.20;;;8.80;99.90;;;;;;5024222;28;20100;-72
2022/04/09 11:14:58;;;;;;;5.63;2.10;;;9.30;99.90;;;;;;5009862;28;20056;-81
2022/04/09 11:17:34;;;;;;;5.00;1.90;;;9.80;99.90;;;;;;5012082;28;20057;-77
2022/04/09 11:20:23;;;;;;;4.03;1.70;;;10.10;99.90;;;;;;5013487;28;20044;-76
2022/04/09 11:22:54;;;;;;;2.50;1.63;;;10.00;99.90;;;;;;5012157;28;20117;-76
2022/04/09 11:25:20;;;;;;;4.70;2.10;;;9.50;99.90;;;;;;5013209;28;20026;-76
2022/04/09 11:27:46;;;;;;;3.67;1.80;;;9.20;99.90;;;;;;5028740;28;20032;-76
2022/04/09 11:30:14;;;;;;;5.77;1.97;;;9.20;99.90;;;;;;5012993;28;20033;-76
2022/04/09 11:32:40;;;;;;;6.77;1.97;;;8.60;99.90;;;;;;5012888;28;20448;-76
2022/04/09 11:35:11;;;;;;;5.80;2.00;;;8.30;99.90;;;;;;5013087;28;20026;-77
2022/04/09 11:37:41;;;;;;;6.07;2.00;;;8.30;99.90;;;;;;5011745;28;20084;-76
2022/04/09 11:40:08;;;;;;;6.23;2.20;;;8.90;99.90;;;;;;5013001;28;20033;-76
2022/04/09 11:42:53;;;;;;;2.23;1.50;;;9.80;99.90;;;;;;5012807;28;20038;-76
2022/04/09 11:45:23;;;;;;;4.20;2.00;;;10.10;99.90;;;;;;5011712;28;20030;-76
2022/04/09 11:47:50;;;;;;;3.87;1.80;;;10.30;99.90;;;;;;5011865;28;20041;-76
2022/04/09 11:50:16;;;;;;;2.87;1.57;;;10.60;99.90;;;;;;5011588;28;20076;-76
2022/04/09 11:52:42;;;;;;;3.83;1.87;;;11.20;99.90;;;;;;5012998;28;20120;-76
2022/04/09 11:55:16;;;;;;;3.10;1.60;;;10.60;99.90;;;;;;5011383;28;20498;-76
2022/04/09 11:57:52;;;;;;;3.10;1.60;;;10.00;99.90;;;;;;5012785;28;20117;-76
2022/04/09 12:00:22;;;;;;;2.67;1.50;;;9.40;99.90;;;;;;5011326;28;20045;-76
2022/04/09 12:02:51;;;;;;;3.00;1.37;;;9.20;99.90;;;;;;5012630;28;20386;-76
2022/04/09 12:05:17;;;;;;;4.83;1.63;;;9.10;99.90;;;;;;5011421;28;20029;-76
2022/04/09 12:07:44;;;;;;;4.43;1.40;;;9.20;99.90;;;;;;5011056;28;20030;-76
2022/04/09 12:10:26;;;;;;;4.70;1.60;;;9.70;99.90;;;;;;5012499;28;20029;-77
2022/04/09 12:13:00;;;;;;;4.43;1.50;;;10.20;98.90;;;;;;5012100;28;20415;-77
2022/04/09 12:15:28;;;;;;;3.67;1.27;;;10.80;99.20;;;;;;5012404;28;20025;-79
2022/04/09 12:17:56;;;;;;;3.33;1.20;;;10.80;96.00;;;;;;5010067;28;20032;-76
2022/04/09 12:20:40;;;;;;;4.57;1.50;;;10.50;98.60;;;;;;5012318;28;20044;-76
2022/04/09 12:23:07;;;;;;;4.57;1.50;;;10.20;99.20;;;;;;5010748;28;20049;-78
2022/04/09 12:25:42;;;;;;;5.00;1.42;;;10.60;98.30;;;;;;5013145;28;20026;-76
2022/04/09 12:28:24;;;;;;;;;;;11.10;97.30;;;;;;5015872;28;20111;-77
2022/04/09 12:30:52;;;;;;;6.20;1.80;;;10.70;98.00;;;;;;5014493;28;19960;-78
2022/04/09 12:33:19;;;;;;;3.15;1.60;;;10.40;98.20;;;;;;5014729;28;20073;-79
2022/04/09 12:35:46;;;;;;;5.90;1.95;;;10.50;99.50;;;;;;5015993;28;20084;-78
2022/04/09 12:38:28;;;;;;;4.22;1.50;;;10.80;98.60;;;;;;5014924;28;20478;-78
2022/04/09 12:41:01;;;;;;;4.75;1.75;;;10.80;97.40;;;;;;5002987;28;20034;-76
2022/04/09 12:43:36;;;;;;;3.78;1.40;;;11.20;95.80;;;;;;4998633;28;20040;-77
2022/04/09 12:46:06;;;;;;;4.70;2.00;;;11.00;97.80;;;;;;5001421;28;20034;-77
2022/04/09 12:48:45;;;;;;;5.78;1.80;;;11.20;97.30;;;;;;5009126;28;20030;-76
2022/04/09 12:51:13;;;;;;;5.30;1.70;;;10.80;96.90;;;;;;4997197;28;20026;-76
2022/04/09 12:53:40;;;;;;;5.20;1.50;;;10.40;96.50;;;;;;4997152;28;20105;-76
2022/04/09 12:56:07;;;;;;;3.22;1.38;;;10.20;98.60;;;;;;4996174;28;20029;-78
2022/04/09 12:58:33;;;;;;;4.73;1.80;;;10.20;99.90;;;;;;4997268;28;20030;-76